Gozo/Qala, Malta
Current Conditions -  °F | °C
As of 9:45 AM on Monday 20 Oct 2014 (Local Time) from LMML Reporting Station
Few Clouds Few Clouds  
Wind Chill: 75°   Ceiling: Unl
Heat Index: 75°   Visibility: 6mi
Dew Point: 64°   Wind: 5mph
Humidity: 69%   Direction: 70°ENE
Pressure: 30.21"   Gusts: NA
Location:  36.05°N, 14.27°E
Report Text: LMML 200745Z 07004KT 010V120 9999 FEW020 24/18 Q1023 NOSIG
Loading
Personal Weather Stations






























Interactive Weather Map
Tropical Storm Tracking
New forecast layout! Learn more

10-Day Weather Forecast

Advertisements
Track Severe Weather on mobile